sensor_id;sensor_type;location;lat;lon;timestamp;temperature;humidity
30459;DHT22;17254;50.976;7.034;2022-07-10T00:00:23;13.80;99.90
30459;DHT22;17254;50.976;7.034;2022-07-10T00:00:54;13.80;99.90
30459;DHT22;17254;50.976;7.034;2022-07-10T00:01:25;13.80;99.90
30459;DHT22;17254;50.976;7.034;2022-07-10T00:01:57;13.80;99.90
30459;DHT22;17254;50.976;7.034;2022-07-10T00:02:28;13.90;99.90
30459;DHT22;17254;50.976;7.034;2022-07-10T00:02:59;13.80;99.90
30459;DHT22;17254;50.976;7.034;2022-07-10T00:03:31;13.90;99.90
30459;DHT22;17254;50.976;7.034;2022-07-10T00:04:02;13.80;99.90
30459;DHT22;17254;50.976;7.034;2022-07-10T00:04:33;13.90;99.90
30459;DHT22;17254;50.976;7.034;2022-07-10T00:05:05;14.00;99.90
30459;DHT22;17254;50.976;7.034;2022-07-10T00:05:37;14.00;99.90
30459;DHT22;17254;50.976;7.034;2022-07-10T00:06:08;14.00;99.90
30459;DHT22;17254;50.976;7.034;2022-07-10T00:06:40;14.00;99.90
30459;DHT22;17254;50.976;7.034;2022-07-10T00:07:13;14.10;99.90
30459;DHT22;17254;50.976;7.034;2022-07-10T00:07:44;14.00;99.90
30459;DHT22;17254;50.976;7.034;2022-07-10T00:08:15;14.00;99.90
30459;DHT22;17254;50.976;7.034;2022-07-10T00:08:47;13.90;99.90
30459;DHT22;17254;50.976;7.034;2022-07-10T00:09:18;13.80;99.90
30459;DHT22;17254;50.976;7.034;2022-07-10T00:09:49;13.80;99.90
30459;DHT22;17254;50.976;7.034;2022-07-10T00:10:21;13.80;99.90
30459;DHT22;17254;50.976;7.034;2022-07-10T00:10:53;13.80;99.90
30459;DHT22;17254;50.976;7.034;2022-07-10T00:11:24;13.70;99.90
30459;DHT22;17254;50.976;7.034;2022-07-10T00:11:55;13.70;99.90
30459;DHT22;17254;50.976;7.034;2022-07-10T00:12:27;13.70;99.90
30459;DHT22;17254;50.976;7.034;2022-07-10T00:12:58;13.70;99.90
30459;DHT22;17254;50.976;7.034;2022-07-10T00:13:29;13.60;99.90
30459;DHT22;17254;50.976;7.034;2022-07-10T00:14:01;13.60;99.90
30459;DHT22;17254;50.976;7.034;2022-07-10T00:14:32;13.70;99.90
30459;DHT22;17254;50.976;7.034;2022-07-10T00:15:05;13.60;99.90
30459;DHT22;17254;50.976;7.034;2022-07-10T00:15:37;13.60;99.90
30459;DHT22;17254;50.976;7.034;2022-07-10T00:16:08;13.60;99.90
30459;DHT22;17254;50.976;7.034;2022-07-10T00:16:40;13.50;99.90
30459;DHT22;17254;50.976;7.034;2022-07-10T00:17:11;13.50;99.90
30459;DHT22;17254;50.976;7.034;2022-07-10T00:17:43;13.60;99.90
30459;DHT22;17254;50.976;7.034;2022-07-10T00:18:14;13.60;99.90
30459;DHT22;17254;50.976;7.034;2022-07-10T00:18:46;13.50;99.90
30459;DHT22;17254;50.976;7.034;2022-07-10T00:19:17;13.60;99.90
30459;DHT22;17254;50.976;7.034;2022-07-10T00:19:48;13.60;99.90
30459;DHT22;17254;50.976;7.034;2022-07-10T00:20:20;13.60;99.90
30459;DHT22;17254;50.976;7.034;2022-07-10T00:20:51;13.60;99.90
30459;DHT22;17254;50.976;7.034;2022-07-10T00:21:22;13.50;99.90
30459;DHT22;17254;50.976;7.034;2022-07-10T00:21:54;13.60;99.90
30459;DHT22;17254;50.976;7.034;2022-07-10T00:22:25;13.60;99.90
30459;DHT22;17254;50.976;7.034;2022-07-10T00:22:56;13.70;99.90
30459;DHT22;17254;50.976;7.034;2022-07-10T00:23:28;13.60;99.90
30459;DHT22;17254;50.976;7.034;2022-07-10T00:23:59;13.60;99.90
30459;DHT22;17254;50.976;7.034;2022-07-10T00:24:30;13.60;99.90
30459;DHT22;17254;50.976;7.034;2022-07-10T00:25:03;13.50;99.90
30459;DHT22;17254;50.976;7.034;2022-07-10T00:25:34;13.50;99.90
30459;DHT22;17254;50.976;7.034;2022-07-10T00:26:05;13.50;99.90
30459;DHT22;17254;50.976;7.034;2022-07-10T00:26:37;13.50;99.90
30459;DHT22;17254;50.976;7.034;2022-07-10T00:27:08;13.50;99.90
30459;DHT22;17254;50.976;7.034;2022-07-10T00:27:39;13.60;99.90
30459;DHT22;17254;50.976;7.034;2022-07-10T00:28:11;13.50;99.90
30459;DHT22;17254;50.976;7.034;2022-07-10T00:28:42;13.50;99.90
30459;DHT22;17254;50.976;7.034;2022-07-10T00:29:13;13.40;99.90
30459;DHT22;17254;50.976;7.034;2022-07-10T00:29:45;13.40;99.90
30459;DHT22;17254;50.976;7.034;2022-07-10T00:30:18;13.30;99.90
30459;DHT22;17254;50.976;7.034;2022-07-10T00:30:49;13.30;99.90
30459;DHT22;17254;50.976;7.034;2022-07-10T00:31:21;13.30;99.90
30459;DHT22;17254;50.976;7.034;2022-07-10T00:31:52;13.30;99.90
30459;DHT22;17254;50.976;7.034;2022-07-10T00:32:23;13.30;99.90
30459;DHT22;17254;50.976;7.034;2022-07-10T00:32:55;13.40;99.90
30459;DHT22;17254;50.976;7.034;2022-07-10T00:33:26;13.30;99.90
30459;DHT22;17254;50.976;7.034;2022-07-10T00:33:58;13.30;99.90
30459;DHT22;17254;50.976;7.034;2022-07-10T00:34:30;13.30;99.90
30459;DHT22;17254;50.976;7.034;2022-07-10T00:35:01;13.30;99.90
30459;DHT22;17254;50.976;7.034;2022-07-10T00:35:32;13.30;99.90
30459;DHT22;17254;50.976;7.034;2022-07-10T00:36:05;13.40;99.90
30459;DHT22;17254;50.976;7.034;2022-07-10T00:36:37;13.40;99.90
30459;DHT22;17254;50.976;7.034;2022-07-10T00:37:08;13.40;99.90
30459;DHT22;17254;50.976;7.034;2022-07-10T00:37:40;13.40;99.90
30459;DHT22;17254;50.976;7.034;2022-07-10T00:38:11;13.50;99.90
30459;DHT22;17254;50.976;7.034;2022-07-10T00:38:42;13.50;99.90
30459;DHT22;17254;50.976;7.034;2022-07-10T00:39:14;13.40;99.90
30459;DHT22;17254;50.976;7.034;2022-07-10T00:39:45;13.40;99.90
30459;DHT22;17254;50.976;7.034;2022-07-10T00:40:16;13.30;99.90
30459;DHT22;17254;50.976;7.034;2022-07-10T00:40:48;13.30;99.90
30459;DHT22;17254;50.976;7.034;2022-07-10T00:41:19;13.30;99.90
30459;DHT22;17254;50.976;7.034;2022-07-10T00:41:50;13.30;99.90
30459;DHT22;17254;50.976;7.034;2022-07-10T00:42:22;13.30;99.90
30459;DHT22;17254;50.976;7.034;2022-07-10T00:42:54;13.20;99.90
30459;DHT22;17254;50.976;7.034;2022-07-10T00:43:25;13.20;99.90
30459;DHT22;17254;50.976;7.034;2022-07-10T00:43:57;13.20;99.90
30459;DHT22;17254;50.976;7.034;2022-07-10T00:44:29;13.20;99.90
30459;DHT22;17254;50.976;7.034;2022-07-10T00:45:00;13.20;99.90
30459;DHT22;17254;50.976;7.034;2022-07-10T00:45:33;13.20;99.90
30459;DHT22;17254;50.976;7.034;2022-07-10T00:46:05;13.20;99.90
30459;DHT22;17254;50.976;7.034;2022-07-10T00:46:36;13.30;99.90
30459;DHT22;17254;50.976;7.034;2022-07-10T00:47:08;13.30;99.90
30459;DHT22;17254;50.976;7.034;2022-07-10T00:47:39;13.30;99.90
30459;DHT22;17254;50.976;7.034;2022-07-10T00:48:11;13.30;99.90
30459;DHT22;17254;50.976;7.034;2022-07-10T00:48:42;13.30;99.90
30459;DHT22;17254;50.976;7.034;2022-07-10T00:49:13;13.30;99.90
30459;DHT22;17254;50.976;7.034;2022-07-10T00:49:44;13.20;99.90
30459;DHT22;17254;50.976;7.034;2022-07-10T00:50:16;13.20;99.90
30459;DHT22;17254;50.976;7.034;2022-07-10T00:50:47;13.20;99.90
30459;DHT22;17254;50.976;7.034;2022-07-10T00:51:20;13.20;99.90
30459;DHT22;17254;50.976;7.034;2022-07-10T00:51:52;13.20;99.90
30459;DHT22;17254;50.976;7.034;2022-07-10T00:52:25;13.20;99.90
30459;DHT22;17254;50.976;7.034;2022-07-10T00:52:56;13.10;99.90
30459;DHT22;17254;50.976;7.034;2022-07-10T00:53:28;13.10;99.90
30459;DHT22;17254;50.976;7.034;2022-07-10T00:54:00;13.10;99.90
30459;DHT22;17254;50.976;7.034;2022-07-10T00:54:31;13.10;99.90
30459;DHT22;17254;50.976;7.034;2022-07-10T00:55:03;13.20;99.90
30459;DHT22;17254;50.976;7.034;2022-07-10T00:55:36;13.20;99.90
30459;DHT22;17254;50.976;7.034;2022-07-10T00:56:09;13.20;99.90
30459;DHT22;17254;50.976;7.034;2022-07-10T00:56:42;13.10;99.90
30459;DHT22;17254;50.976;7.034;2022-07-10T00:57:15;13.10;99.90
30459;DHT22;17254;50.976;7.034;2022-07-10T00:57:46;13.10;99.90
30459;DHT22;17254;50.976;7.034;2022-07-10T00:58:18;13.10;99.90
30459;DHT22;17254;50.976;7.034;2022-07-10T00:58:50;13.20;99.90
30459;DHT22;17254;50.976;7.034;2022-07-10T00:59:22;13.20;99.90
30459;DHT22;17254;50.976;7.034;2022-07-10T00:59:53;13.20;99.90
30459;DHT22;17254;50.976;7.034;2022-07-10T01:00:25;13.20;99.90
30459;DHT22;17254;50.976;7.034;2022-07-10T01:00:59;13.20;99.90
30459;DHT22;17254;50.976;7.034;2022-07-10T01:01:32;13.20;99.90
30459;DHT22;17254;50.976;7.034;2022-07-10T01:02:04;13.20;99.90
30459;DHT22;17254;50.976;7.034;2022-07-10T01:02:38;13.20;99.90
30459;DHT22;17254;50.976;7.034;2022-07-10T01:03:11;13.20;99.90
30459;DHT22;17254;50.976;7.034;2022-07-10T01:03:43;13.10;99.90
30459;DHT22;17254;50.976;7.034;2022-07-10T01:04:16;13.10;99.90
30459;DHT22;17254;50.976;7.034;2022-07-10T01:04:47;13.10;99.90
30459;DHT22;17254;50.976;7.034;2022-07-10T01:05:19;13.10;99.90
30459;DHT22;17254;50.976;7.034;2022-07-10T01:05:50;13.10;99.90
30459;DHT22;17254;50.976;7.034;2022-07-10T01:06:21;13.10;99.90
30459;DHT22;17254;50.976;7.034;2022-07-10T01:06:52;13.10;99.90
30459;DHT22;17254;50.976;7.034;2022-07-10T01:07:24;13.10;99.90
30459;DHT22;17254;50.976;7.034;2022-07-10T01:07:55;13.10;99.90
30459;DHT22;17254;50.976;7.034;2022-07-10T01:08:27;13.10;99.90
30459;DHT22;17254;50.976;7.034;2022-07-10T01:09:00;13.10;99.90
30459;DHT22;17254;50.976;7.034;2022-07-10T01:09:32;13.10;99.90
30459;DHT22;17254;50.976;7.034;2022-07-10T01:10:04;13.10;99.90
30459;DHT22;17254;50.976;7.034;2022-07-10T01:10:37;13.10;99.90
30459;DHT22;17254;50.976;7.034;2022-07-10T01:11:09;13.10;99.90
30459;DHT22;17254;50.976;7.034;2022-07-10T01:11:40;13.10;99.90
30459;DHT22;17254;50.976;7.034;2022-07-10T01:12:12;13.10;99.90
30459;DHT22;17254;50.976;7.034;2022-07-10T01:12:44;13.10;99.90
30459;DHT22;17254;50.976;7.034;2022-07-10T01:13:15;13.10;99.90
30459;DHT22;17254;50.976;7.034;2022-07-10T01:13:46;13.00;99.90
30459;DHT22;17254;50.976;7.034;2022-07-10T01:14:20;13.00;99.90
30459;DHT22;17254;50.976;7.034;2022-07-10T01:14:51;13.00;99.90
30459;DHT22;17254;50.976;7.034;2022-07-10T01:15:22;13.00;99.90
30459;DHT22;17254;50.976;7.034;2022-07-10T01:15:54;13.00;99.90
30459;DHT22;17254;50.976;7.034;2022-07-10T01:16:27;13.00;99.90
30459;DHT22;17254;50.976;7.034;2022-07-10T01:16:58;13.00;99.90
30459;DHT22;17254;50.976;7.034;2022-07-10T01:17:31;13.00;99.90
30459;DHT22;17254;50.976;7.034;2022-07-10T01:18:03;13.10;99.90
30459;DHT22;17254;50.976;7.034;2022-07-10T01:18:34;13.00;99.90
30459;DHT22;17254;50.976;7.034;2022-07-10T01:19:06;13.00;99.90
30459;DHT22;17254;50.976;7.034;2022-07-10T01:19:37;13.00;99.90
30459;DHT22;17254;50.976;7.034;2022-07-10T01:20:09;13.00;99.90
30459;DHT22;17254;50.976;7.034;2022-07-10T01:20:42;13.00;99.90
30459;DHT22;17254;50.976;7.034;2022-07-10T01:21:28;13.00;99.90
30459;DHT22;17254;50.976;7.034;2022-07-10T01:21:59;13.00;99.90
30459;DHT22;17254;50.976;7.034;2022-07-10T01:22:31;13.00;99.90
30459;DHT22;17254;50.976;7.034;2022-07-10T01:23:02;12.90;99.90
30459;DHT22;17254;50.976;7.034;2022-07-10T01:23:33;12.90;99.90
30459;DHT22;17254;50.976;7.034;2022-07-10T01:24:07;12.90;99.90
30459;DHT22;17254;50.976;7.034;2022-07-10T01:24:38;12.90;99.90
30459;DHT22;17254;50.976;7.034;2022-07-10T01:25:09;12.90;99.90
30459;DHT22;17254;50.976;7.034;2022-07-10T01:25:42;12.90;99.90
30459;DHT22;17254;50.976;7.034;2022-07-10T01:26:14;12.90;99.90
30459;DHT22;17254;50.976;7.034;2022-07-10T01:26:45;12.90;99.90
30459;DHT22;17254;50.976;7.034;2022-07-10T01:27:17;12.90;99.90
30459;DHT22;17254;50.976;7.034;2022-07-10T01:27:48;12.90;99.90
30459;DHT22;17254;50.976;7.034;2022-07-10T01:28:20;12.90;99.90
30459;DHT22;17254;50.976;7.034;2022-07-10T01:28:54;12.90;99.90
30459;DHT22;17254;50.976;7.034;2022-07-10T01:29:25;12.90;99.90
30459;DHT22;17254;50.976;7.034;2022-07-10T01:29:57;12.90;99.90
30459;DHT22;17254;50.976;7.034;2022-07-10T01:30:30;12.80;99.90
30459;DHT22;17254;50.976;7.034;2022-07-10T01:31:01;12.90;99.90
30459;DHT22;17254;50.976;7.034;2022-07-10T01:31:34;12.80;99.90
30459;DHT22;17254;50.976;7.034;2022-07-10T01:32:06;12.80;99.90
30459;DHT22;17254;50.976;7.034;2022-07-10T01:32:38;12.80;99.90
30459;DHT22;17254;50.976;7.034;2022-07-10T01:33:09;12.80;99.90
30459;DHT22;17254;50.976;7.034;2022-07-10T01:33:41;12.80;99.90
30459;DHT22;17254;50.976;7.034;2022-07-10T01:34:13;12.80;99.90
30459;DHT22;17254;50.976;7.034;2022-07-10T01:34:44;12.70;99.90
30459;DHT22;17254;50.976;7.034;2022-07-10T01:35:18;12.70;99.90
30459;DHT22;17254;50.976;7.034;2022-07-10T01:35:49;12.70;99.90
30459;DHT22;17254;50.976;7.034;2022-07-10T01:36:21;12.70;99.90
30459;DHT22;17254;50.976;7.034;2022-07-10T01:36:53;12.70;99.90
30459;DHT22;17254;50.976;7.034;2022-07-10T01:37:25;12.70;99.90
30459;DHT22;17254;50.976;7.034;2022-07-10T01:37:56;12.70;99.90
30459;DHT22;17254;50.976;7.034;2022-07-10T01:38:27;12.70;99.90
30459;DHT22;17254;50.976;7.034;2022-07-10T01:39:00;12.60;99.90
30459;DHT22;17254;50.976;7.034;2022-07-10T01:39:31;12.70;99.90
30459;DHT22;17254;50.976;7.034;2022-07-10T01:40:02;12.60;99.90
30459;DHT22;17254;50.976;7.034;2022-07-10T01:40:33;12.60;99.90
30459;DHT22;17254;50.976;7.034;2022-07-10T01:41:05;12.60;99.90
30459;DHT22;17254;50.976;7.034;2022-07-10T01:41:37;12.60;99.90
30459;DHT22;17254;50.976;7.034;2022-07-10T01:42:08;12.70;99.90
30459;DHT22;17254;50.976;7.034;2022-07-10T01:42:39;12.70;99.90
30459;DHT22;17254;50.976;7.034;2022-07-10T01:43:11;12.70;99.90
30459;DHT22;17254;50.976;7.034;2022-07-10T01:43:42;12.70;99.90
30459;DHT22;17254;50.976;7.034;2022-07-10T01:44:15;12.60;99.90
30459;DHT22;17254;50.976;7.034;2022-07-10T01:44:47;12.60;99.90
30459;DHT22;17254;50.976;7.034;2022-07-10T01:45:18;12.60;99.90
30459;DHT22;17254;50.976;7.034;2022-07-10T01:45:49;12.60;99.90
30459;DHT22;17254;50.976;7.034;2022-07-10T01:46:21;12.60;99.90
30459;DHT22;17254;50.976;7.034;2022-07-10T01:46:52;12.60;99.90
30459;DHT22;17254;50.976;7.034;2022-07-10T01:47:25;12.60;99.90
30459;DHT22;17254;50.976;7.034;2022-07-10T01:47:58;12.50;99.90
30459;DHT22;17254;50.976;7.034;2022-07-10T01:48:29;12.60;99.90
30459;DHT22;17254;50.976;7.034;2022-07-10T01:49:02;12.50;99.90
30459;DHT22;17254;50.976;7.034;2022-07-10T01:49:33;12.50;99.90
30459;DHT22;17254;50.976;7.034;2022-07-10T01:50:06;12.40;99.90
30459;DHT22;17254;50.976;7.034;2022-07-10T01:50:38;12.40;99.90
30459;DHT22;17254;50.976;7.034;2022-07-10T01:51:11;12.30;99.90
30459;DHT22;17254;50.976;7.034;2022-07-10T01:51:42;12.30;99.90
30459;DHT22;17254;50.976;7.034;2022-07-10T01:52:15;12.30;99.90
30459;DHT22;17254;50.976;7.034;2022-07-10T01:52:47;12.30;99.90
30459;DHT22;17254;50.976;7.034;2022-07-10T01:53:19;12.20;99.90
30459;DHT22;17254;50.976;7.034;2022-07-10T01:53:50;12.30;99.90
30459;DHT22;17254;50.976;7.034;2022-07-10T01:54:21;12.20;99.90
30459;DHT22;17254;50.976;7.034;2022-07-10T01:54:53;12.20;99.90
30459;DHT22;17254;50.976;7.034;2022-07-10T01:55:24;12.20;99.90
30459;DHT22;17254;50.976;7.034;2022-07-10T01:55:55;12.20;99.90
30459;DHT22;17254;50.976;7.034;2022-07-10T01:56:26;12.20;99.90
30459;DHT22;17254;50.976;7.034;2022-07-10T01:56:58;12.10;99.90
30459;DHT22;17254;50.976;7.034;2022-07-10T01:57:30;12.10;99.90
30459;DHT22;17254;50.976;7.034;2022-07-10T01:58:01;12.20;99.90
30459;DHT22;17254;50.976;7.034;2022-07-10T01:58:33;12.20;99.90
30459;DHT22;17254;50.976;7.034;2022-07-10T01:59:05;12.20;99.90
30459;DHT22;17254;50.976;7.034;2022-07-10T01:59:36;12.20;99.90
30459;DHT22;17254;50.976;7.034;2022-07-10T02:00:09;12.20;99.90
30459;DHT22;17254;50.976;7.034;2022-07-10T02:00:46;12.20;99.90
30459;DHT22;17254;50.976;7.034;2022-07-10T02:01:17;12.20;99.90
30459;DHT22;17254;50.976;7.034;2022-07-10T02:01:49;12.20;99.90
30459;DHT22;17254;50.976;7.034;2022-07-10T02:02:20;12.30;99.90
30459;DHT22;17254;50.976;7.034;2022-07-10T02:02:52;12.30;99.90
30459;DHT22;17254;50.976;7.034;2022-07-10T02:03:38;12.40;99.90
30459;DHT22;17254;50.976;7.034;2022-07-10T02:04:27;12.30;99.90
30459;DHT22;17254;50.976;7.034;2022-07-10T02:05:15;12.40;99.90
30459;DHT22;17254;50.976;7.034;2022-07-10T02:05:46;12.50;99.90
30459;DHT22;17254;50.976;7.034;2022-07-10T02:06:17;12.60;99.90
30459;DHT22;17254;50.976;7.034;2022-07-10T02:06:48;12.60;99.90
30459;DHT22;17254;50.976;7.034;2022-07-10T02:07:20;12.70;99.90
30459;DHT22;17254;50.976;7.034;2022-07-10T02:07:56;12.60;99.90
30459;DHT22;17254;50.976;7.034;2022-07-10T02:08:27;12.70;99.90
30459;DHT22;17254;50.976;7.034;2022-07-10T02:08:58;12.70;99.90
30459;DHT22;17254;50.976;7.034;2022-07-10T02:09:30;12.80;99.90
30459;DHT22;17254;50.976;7.034;2022-07-10T02:10:01;12.80;99.90
30459;DHT22;17254;50.976;7.034;2022-07-10T02:10:32;12.80;99.90
30459;DHT22;17254;50.976;7.034;2022-07-10T02:11:03;12.90;99.90
30459;DHT22;17254;50.976;7.034;2022-07-10T02:11:35;12.90;99.90
30459;DHT22;17254;50.976;7.034;2022-07-10T02:12:07;12.90;99.90
30459;DHT22;17254;50.976;7.034;2022-07-10T02:12:39;13.00;99.90
30459;DHT22;17254;50.976;7.034;2022-07-10T02:13:10;13.00;99.90
30459;DHT22;17254;50.976;7.034;2022-07-10T02:13:42;13.00;99.90
30459;DHT22;17254;50.976;7.034;2022-07-10T02:14:14;13.00;99.90
30459;DHT22;17254;50.976;7.034;2022-07-10T02:14:45;13.00;99.90
30459;DHT22;17254;50.976;7.034;2022-07-10T02:15:17;13.00;99.90
30459;DHT22;17254;50.976;7.034;2022-07-10T02:15:48;13.10;99.90
30459;DHT22;17254;50.976;7.034;2022-07-10T02:16:20;13.00;99.90
30459;DHT22;17254;50.976;7.034;2022-07-10T02:16:52;13.10;99.90
30459;DHT22;17254;50.976;7.034;2022-07-10T02:17:23;13.10;99.90
30459;DHT22;17254;50.976;7.034;2022-07-10T02:17:54;13.10;99.90
30459;DHT22;17254;50.976;7.034;2022-07-10T02:18:26;13.10;99.90
30459;DHT22;17254;50.976;7.034;2022-07-10T02:18:57;13.20;99.90
30459;DHT22;17254;50.976;7.034;2022-07-10T02:19:28;13.20;99.90
30459;DHT22;17254;50.976;7.034;2022-07-10T02:19:59;13.10;99.90
30459;DHT22;17254;50.976;7.034;2022-07-10T02:20:32;13.20;99.90
30459;DHT22;17254;50.976;7.034;2022-07-10T02:21:05;13.20;99.90
30459;DHT22;17254;50.976;7.034;2022-07-10T02:21:36;13.20;99.90
30459;DHT22;17254;50.976;7.034;2022-07-10T02:22:08;13.20;99.90
30459;DHT22;17254;50.976;7.034;2022-07-10T02:22:40;13.30;99.90
30459;DHT22;17254;50.976;7.034;2022-07-10T02:23:11;13.30;99.90
30459;DHT22;17254;50.976;7.034;2022-07-10T02:23:43;13.30;99.90
30459;DHT22;17254;50.976;7.034;2022-07-10T02:24:14;13.30;99.90
30459;DHT22;17254;50.976;7.034;2022-07-10T02:24:45;13.30;99.90
30459;DHT22;17254;50.976;7.034;2022-07-10T02:25:18;13.40;99.90
30459;DHT22;17254;50.976;7.034;2022-07-10T02:25:49;13.40;99.90
30459;DHT22;17254;50.976;7.034;2022-07-10T02:26:20;13.40;99.90
30459;DHT22;17254;50.976;7.034;2022-07-10T02:26:52;13.40;99.90
30459;DHT22;17254;50.976;7.034;2022-07-10T02:27:25;13.40;99.90
30459;DHT22;17254;50.976;7.034;2022-07-10T02:27:57;13.40;99.90
30459;DHT22;17254;50.976;7.034;2022-07-10T02:28:29;13.40;99.90
30459;DHT22;17254;50.976;7.034;2022-07-10T02:29:00;13.40;99.90
30459;DHT22;17254;50.976;7.034;2022-07-10T02:29:32;13.40;99.90
30459;DHT22;17254;50.976;7.034;2022-07-10T02:30:04;13.40;99.90
30459;DHT22;17254;50.976;7.034;2022-07-10T02:30:35;13.40;99.90
30459;DHT22;17254;50.976;7.034;2022-07-10T02:31:07;13.40;99.90
30459;DHT22;17254;50.976;7.034;2022-07-10T02:31:38;13.40;99.90
30459;DHT22;17254;50.976;7.034;2022-07-10T02:32:11;13.40;99.90
30459;DHT22;17254;50.976;7.034;2022-07-10T02:32:43;13.40;99.90
30459;DHT22;17254;50.976;7.034;2022-07-10T02:33:14;13.50;99.90
30459;DHT22;17254;50.976;7.034;2022-07-10T02:33:45;13.50;99.90
30459;DHT22;17254;50.976;7.034;2022-07-10T02:34:17;13.50;99.90
30459;DHT22;17254;50.976;7.034;2022-07-10T02:34:48;13.50;99.90
30459;DHT22;17254;50.976;7.034;2022-07-10T02:35:19;13.40;99.90
30459;DHT22;17254;50.976;7.034;2022-07-10T02:35:51;13.40;99.90
30459;DHT22;17254;50.976;7.034;2022-07-10T02:36:22;13.40;99.90
30459;DHT22;17254;50.976;7.034;2022-07-10T02:36:53;13.40;99.90
30459;DHT22;17254;50.976;7.034;2022-07-10T02:37:25;13.50;99.90
30459;DHT22;17254;50.976;7.034;2022-07-10T02:37:57;13.40;99.90
30459;DHT22;17254;50.976;7.034;2022-07-10T02:38:28;13.40;99.90
30459;DHT22;17254;50.976;7.034;2022-07-10T02:39:00;13.40;99.90
30459;DHT22;17254;50.976;7.034;2022-07-10T02:39:31;13.40;99.90
30459;DHT22;17254;50.976;7.034;2022-07-10T02:40:03;13.40;99.90
30459;DHT22;17254;50.976;7.034;2022-07-10T02:40:35;13.40;99.90
30459;DHT22;17254;50.976;7.034;2022-07-10T02:41:06;13.40;99.90
30459;DHT22;17254;50.976;7.034;2022-07-10T02:41:37;13.30;99.90
30459;DHT22;17254;50.976;7.034;2022-07-10T02:42:09;13.30;99.90
30459;DHT22;17254;50.976;7.034;2022-07-10T02:42:40;13.30;99.90
30459;DHT22;17254;50.976;7.034;2022-07-10T02:43:11;13.30;99.90
30459;DHT22;17254;50.976;7.034;2022-07-10T02:43:43;13.30;99.90
30459;DHT22;17254;50.976;7.034;2022-07-10T02:44:14;13.30;99.90
30459;DHT22;17254;50.976;7.034;2022-07-10T02:44:45;13.30;99.90
30459;DHT22;17254;50.976;7.034;2022-07-10T02:45:16;13.20;99.90
30459;DHT22;17254;50.976;7.034;2022-07-10T02:45:48;13.20;99.90
30459;DHT22;17254;50.976;7.034;2022-07-10T02:46:19;13.20;99.90
30459;DHT22;17254;50.976;7.034;2022-07-10T02:46:50;13.20;99.90
30459;DHT22;17254;50.976;7.034;2022-07-10T02:47:22;13.20;99.90
30459;DHT22;17254;50.976;7.034;2022-07-10T02:47:53;13.20;99.90
30459;DHT22;17254;50.976;7.034;2022-07-10T02:48:24;13.20;99.90
30459;DHT22;17254;50.976;7.034;2022-07-10T02:48:56;13.10;99.90
30459;DHT22;17254;50.976;7.034;2022-07-10T02:49:27;13.10;99.90
30459;DHT22;17254;50.976;7.034;2022-07-10T02:49:58;13.10;99.90
30459;DHT22;17254;50.976;7.034;2022-07-10T02:50:30;13.10;99.90
30459;DHT22;17254;50.976;7.034;2022-07-10T02:51:01;13.10;99.90
30459;DHT22;17254;50.976;7.034;2022-07-10T02:51:32;13.00;99.90
30459;DHT22;17254;50.976;7.034;2022-07-10T02:52:04;13.00;99.90
30459;DHT22;17254;50.976;7.034;2022-07-10T02:52:35;13.00;99.90
30459;DHT22;17254;50.976;7.034;2022-07-10T02:53:08;13.00;99.90
30459;DHT22;17254;50.976;7.034;2022-07-10T02:53:40;13.10;99.90
30459;DHT22;17254;50.976;7.034;2022-07-10T02:54:11;13.00;99.90
30459;DHT22;17254;50.976;7.034;2022-07-10T02:54:42;13.00;99.90
30459;DHT22;17254;50.976;7.034;2022-07-10T02:55:13;13.00;99.90
30459;DHT22;17254;50.976;7.034;2022-07-10T02:55:45;12.90;99.90
30459;DHT22;17254;50.976;7.034;2022-07-10T02:56:16;13.00;99.90
30459;DHT22;17254;50.976;7.034;2022-07-10T02:56:46;13.00;99.90
30459;DHT22;17254;50.976;7.034;2022-07-10T02:57:18;13.00;99.90
30459;DHT22;17254;50.976;7.034;2022-07-10T02:57:49;13.00;99.90
30459;DHT22;17254;50.976;7.034;2022-07-10T02:58:20;12.90;99.90
30459;DHT22;17254;50.976;7.034;2022-07-10T02:58:52;13.00;99.90
30459;DHT22;17254;50.976;7.034;2022-07-10T02:59:24;13.00;99.90
30459;DHT22;17254;50.976;7.034;2022-07-10T02:59:55;13.00;99.90
30459;DHT22;17254;50.976;7.034;2022-07-10T03:00:26;13.00;99.90
30459;DHT22;17254;50.976;7.034;2022-07-10T03:00:58;13.00;99.90
30459;DHT22;17254;50.976;7.034;2022-07-10T03:01:29;13.00;99.90
30459;DHT22;17254;50.976;7.034;2022-07-10T03:02:00;13.00;99.90
30459;DHT22;17254;50.976;7.034;2022-07-10T03:02:32;13.00;99.90
30459;DHT22;17254;50.976;7.034;2022-07-10T03:03:03;13.00;99.90
30459;DHT22;17254;50.976;7.034;2022-07-10T03:03:35;13.00;99.90
30459;DHT22;17254;50.976;7.034;2022-07-10T03:04:06;13.00;99.90
30459;DHT22;17254;50.976;7.034;2022-07-10T03:04:37;13.00;99.90
30459;DHT22;17254;50.976;7.034;2022-07-10T03:05:09;13.00;99.90
30459;DHT22;17254;50.976;7.034;2022-07-10T03:05:40;13.00;99.90
30459;DHT22;17254;50.976;7.034;2022-07-10T03:06:11;13.00;99.90
30459;DHT22;17254;50.976;7.034;2022-07-10T03:06:43;13.10;99.90
30459;DHT22;17254;50.976;7.034;2022-07-10T03:07:15;13.10;99.90
30459;DHT22;17254;50.976;7.034;2022-07-10T03:07:46;13.10;99.90
30459;DHT22;17254;50.976;7.034;2022-07-10T03:08:19;13.10;99.90
30459;DHT22;17254;50.976;7.034;2022-07-10T03:08:50;13.10;99.90
30459;DHT22;17254;50.976;7.034;2022-07-10T03:09:21;13.10;99.90
30459;DHT22;17254;50.976;7.034;2022-07-10T03:09:53;13.10;99.90
30459;DHT22;17254;50.976;7.034;2022-07-10T03:10:24;13.10;99.90
30459;DHT22;17254;50.976;7.034;2022-07-10T03:10:55;13.10;99.90
30459;DHT22;17254;50.976;7.034;2022-07-10T03:11:27;13.10;99.90
30459;DHT22;17254;50.976;7.034;2022-07-10T03:11:58;13.10;99.90
30459;DHT22;17254;50.976;7.034;2022-07-10T03:12:29;13.10;99.90
30459;DHT22;17254;50.976;7.034;2022-07-10T03:13:01;13.10;99.90
30459;DHT22;17254;50.976;7.034;2022-07-10T03:13:32;13.20;99.90
30459;DHT22;17254;50.976;7.034;2022-07-10T03:14:04;13.20;99.90
30459;DHT22;17254;50.976;7.034;2022-07-10T03:14:36;13.20;99.90
30459;DHT22;17254;50.976;7.034;2022-07-10T03:15:08;13.20;99.90
30459;DHT22;17254;50.976;7.034;2022-07-10T03:15:40;13.20;99.90
30459;DHT22;17254;50.976;7.034;2022-07-10T03:16:11;13.20;99.90
30459;DHT22;17254;50.976;7.034;2022-07-10T03:16:42;13.20;99.90
30459;DHT22;17254;50.976;7.034;2022-07-10T03:17:14;13.20;99.90
30459;DHT22;17254;50.976;7.034;2022-07-10T03:17:45;13.20;99.90
30459;DHT22;17254;50.976;7.034;2022-07-10T03:18:17;13.20;99.90
30459;DHT22;17254;50.976;7.034;2022-07-10T03:18:49;13.30;99.90
30459;DHT22;17254;50.976;7.034;2022-07-10T03:19:20;13.20;99.90
30459;DHT22;17254;50.976;7.034;2022-07-10T03:19:50;13.20;99.90
30459;DHT22;17254;50.976;7.034;2022-07-10T03:20:23;13.20;99.90
30459;DHT22;17254;50.976;7.034;2022-07-10T03:20:54;13.20;99.90